sensor_id;sensor_type;location;lat;lon;timestamp;P1;durP1;ratioP1;P2;durP2;ratioP2
23506;SDS011;11930;53.076;18.250;2023-06-22T00:01:17;14.75;;;12.32;;
23506;SDS011;11930;53.076;18.250;2023-06-22T00:03:43;15.63;;;11.60;;
23506;SDS011;11930;53.076;18.250;2023-06-22T00:06:09;25.02;;;12.20;;
23506;SDS011;11930;53.076;18.250;2023-06-22T00:08:36;14.73;;;11.32;;
23506;SDS011;11930;53.076;18.250;2023-06-22T00:11:02;15.30;;;12.05;;
23506;SDS011;11930;53.076;18.250;2023-06-22T00:13:28;15.48;;;12.05;;
23506;SDS011;11930;53.076;18.250;2023-06-22T00:15:57;14.75;;;12.10;;
23506;SDS011;11930;53.076;18.250;2023-06-22T00:18:23;15.57;;;11.98;;
23506;SDS011;11930;53.076;18.250;2023-06-22T00:20:55;14.32;;;11.13;;
23506;SDS011;11930;53.076;18.250;2023-06-22T00:23:23;15.02;;;11.48;;
23506;SDS011;11930;53.076;18.250;2023-06-22T00:25:49;13.90;;;11.45;;
23506;SDS011;11930;53.076;18.250;2023-06-22T00:28:15;13.90;;;11.43;;
23506;SDS011;11930;53.076;18.250;2023-06-22T00:30:42;14.45;;;11.70;;
23506;SDS011;11930;53.076;18.250;2023-06-22T00:33:08;14.50;;;11.57;;
23506;SDS011;11930;53.076;18.250;2023-06-22T00:35:34;14.70;;;11.40;;
23506;SDS011;11930;53.076;18.250;2023-06-22T00:38:00;16.42;;;12.38;;
23506;SDS011;11930;53.076;18.250;2023-06-22T00:40:27;16.02;;;12.20;;
23506;SDS011;11930;53.076;18.250;2023-06-22T00:42:54;13.48;;;11.13;;
23506;SDS011;11930;53.076;18.250;2023-06-22T00:45:21;16.92;;;12.60;;
23506;SDS011;11930;53.076;18.250;2023-06-22T00:47:52;13.88;;;12.13;;
23506;SDS011;11930;53.076;18.250;2023-06-22T00:50:22;14.80;;;12.65;;
23506;SDS011;11930;53.076;18.250;2023-06-22T00:52:53;15.35;;;12.60;;
23506;SDS011;11930;53.076;18.250;2023-06-22T00:55:24;15.90;;;12.52;;
23506;SDS011;11930;53.076;18.250;2023-06-22T00:57:52;15.38;;;11.93;;
23506;SDS011;11930;53.076;18.250;2023-06-22T01:00:22;16.73;;;13.10;;
23506;SDS011;11930;53.076;18.250;2023-06-22T01:02:50;15.80;;;13.00;;
23506;SDS011;11930;53.076;18.250;2023-06-22T01:05:22;16.65;;;12.82;;
23506;SDS011;11930;53.076;18.250;2023-06-22T01:13:07;14.02;;;12.15;;
23506;SDS011;11930;53.076;18.250;2023-06-22T01:15:44;16.92;;;12.35;;
23506;SDS011;11930;53.076;18.250;2023-06-22T01:18:17;15.55;;;11.88;;
23506;SDS011;11930;53.076;18.250;2023-06-22T01:20:44;16.15;;;12.65;;
23506;SDS011;11930;53.076;18.250;2023-06-22T01:26:08;15.02;;;11.88;;
23506;SDS011;11930;53.076;18.250;2023-06-22T01:28:45;18.63;;;12.50;;
23506;SDS011;11930;53.076;18.250;2023-06-22T01:31:15;15.48;;;12.02;;
23506;SDS011;11930;53.076;18.250;2023-06-22T01:33:51;15.95;;;12.30;;
23506;SDS011;11930;53.076;18.250;2023-06-22T01:36:21;13.73;;;10.95;;
23506;SDS011;11930;53.076;18.250;2023-06-22T01:38:49;13.00;;;10.95;;
23506;SDS011;11930;53.076;18.250;2023-06-22T01:41:18;12.07;;;9.82;;
23506;SDS011;11930;53.076;18.250;2023-06-22T01:43:46;13.07;;;9.50;;
23506;SDS011;11930;53.076;18.250;2023-06-22T01:46:13;12.30;;;8.75;;
23506;SDS011;11930;53.076;18.250;2023-06-22T01:48:40;11.48;;;8.85;;
23506;SDS011;11930;53.076;18.250;2023-06-22T01:51:06;11.57;;;8.48;;
23506;SDS011;11930;53.076;18.250;2023-06-22T01:53:33;14.38;;;8.65;;
23506;SDS011;11930;53.076;18.250;2023-06-22T01:55:59;12.20;;;9.35;;
23506;SDS011;11930;53.076;18.250;2023-06-22T01:58:29;10.93;;;8.70;;
23506;SDS011;11930;53.076;18.250;2023-06-22T02:00:58;11.82;;;8.98;;
23506;SDS011;11930;53.076;18.250;2023-06-22T02:03:41;9.52;;;8.32;;
23506;SDS011;11930;53.076;18.250;2023-06-22T02:06:46;12.73;;;8.32;;
23506;SDS011;11930;53.076;18.250;2023-06-22T02:09:12;14.13;;;8.73;;
23506;SDS011;11930;53.076;18.250;2023-06-22T02:11:41;10.13;;;8.10;;
23506;SDS011;11930;53.076;18.250;2023-06-22T02:14:10;13.07;;;7.95;;
23506;SDS011;11930;53.076;18.250;2023-06-22T02:16:38;10.43;;;8.13;;
23506;SDS011;11930;53.076;18.250;2023-06-22T02:19:04;10.27;;;7.70;;
23506;SDS011;11930;53.076;18.250;2023-06-22T02:21:33;11.23;;;8.00;;
23506;SDS011;11930;53.076;18.250;2023-06-22T02:23:59;9.82;;;7.38;;
23506;SDS011;11930;53.076;18.250;2023-06-22T02:26:25;10.40;;;7.80;;
23506;SDS011;11930;53.076;18.250;2023-06-22T02:28:53;12.98;;;8.88;;
23506;SDS011;11930;53.076;18.250;2023-06-22T02:31:19;11.05;;;8.65;;
23506;SDS011;11930;53.076;18.250;2023-06-22T02:33:45;10.10;;;8.40;;
23506;SDS011;11930;53.076;18.250;2023-06-22T02:36:13;9.73;;;7.90;;
23506;SDS011;11930;53.076;18.250;2023-06-22T02:38:43;10.32;;;8.02;;
23506;SDS011;11930;53.076;18.250;2023-06-22T02:41:14;11.40;;;7.63;;
23506;SDS011;11930;53.076;18.250;2023-06-22T02:43:46;11.38;;;7.90;;
23506;SDS011;11930;53.076;18.250;2023-06-22T02:46:13;9.18;;;6.85;;
23506;SDS011;11930;53.076;18.250;2023-06-22T02:48:40;9.13;;;6.82;;
23506;SDS011;11930;53.076;18.250;2023-06-22T02:51:07;9.13;;;6.55;;
23506;SDS011;11930;53.076;18.250;2023-06-22T02:53:35;8.48;;;6.53;;
23506;SDS011;11930;53.076;18.250;2023-06-22T02:56:02;8.95;;;6.75;;
23506;SDS011;11930;53.076;18.250;2023-06-22T02:58:32;10.85;;;6.90;;
23506;SDS011;11930;53.076;18.250;2023-06-22T03:01:07;10.10;;;7.03;;
23506;SDS011;11930;53.076;18.250;2023-06-22T03:03:35;9.60;;;6.40;;
23506;SDS011;11930;53.076;18.250;2023-06-22T03:06:02;8.57;;;7.25;;
23506;SDS011;11930;53.076;18.250;2023-06-22T03:08:28;9.57;;;7.35;;
23506;SDS011;11930;53.076;18.250;2023-06-22T03:10:55;9.27;;;7.32;;
23506;SDS011;11930;53.076;18.250;2023-06-22T03:13:22;9.48;;;6.63;;
23506;SDS011;11930;53.076;18.250;2023-06-22T03:15:48;9.38;;;7.50;;
23506;SDS011;11930;53.076;18.250;2023-06-22T03:18:15;8.48;;;6.70;;
23506;SDS011;11930;53.076;18.250;2023-06-22T03:20:41;9.70;;;7.03;;
23506;SDS011;11930;53.076;18.250;2023-06-22T03:23:08;9.95;;;6.22;;
23506;SDS011;11930;53.076;18.250;2023-06-22T03:25:34;9.43;;;6.97;;
23506;SDS011;11930;53.076;18.250;2023-06-22T03:28:01;10.13;;;6.28;;
23506;SDS011;11930;53.076;18.250;2023-06-22T03:30:27;7.25;;;6.10;;
23506;SDS011;11930;53.076;18.250;2023-06-22T03:32:54;6.97;;;5.65;;
23506;SDS011;11930;53.076;18.250;2023-06-22T03:35:20;10.10;;;5.82;;
23506;SDS011;11930;53.076;18.250;2023-06-22T03:37:47;7.85;;;5.95;;
23506;SDS011;11930;53.076;18.250;2023-06-22T03:40:13;8.25;;;4.72;;
23506;SDS011;11930;53.076;18.250;2023-06-22T03:42:40;7.78;;;5.10;;
23506;SDS011;11930;53.076;18.250;2023-06-22T03:45:08;6.45;;;4.97;;
23506;SDS011;11930;53.076;18.250;2023-06-22T03:47:35;5.55;;;4.55;;
23506;SDS011;11930;53.076;18.250;2023-06-22T03:50:01;7.53;;;5.05;;
23506;SDS011;11930;53.076;18.250;2023-06-22T03:52:29;6.15;;;4.68;;
23506;SDS011;11930;53.076;18.250;2023-06-22T03:54:55;7.68;;;4.97;;
23506;SDS011;11930;53.076;18.250;2023-06-22T03:57:21;7.05;;;4.38;;
23506;SDS011;11930;53.076;18.250;2023-06-22T03:59:47;6.40;;;4.20;;
23506;SDS011;11930;53.076;18.250;2023-06-22T04:02:13;5.97;;;4.30;;
23506;SDS011;11930;53.076;18.250;2023-06-22T04:04:39;6.93;;;4.25;;
23506;SDS011;11930;53.076;18.250;2023-06-22T04:07:06;6.90;;;4.13;;
23506;SDS011;11930;53.076;18.250;2023-06-22T04:09:32;6.13;;;4.22;;
23506;SDS011;11930;53.076;18.250;2023-06-22T04:11:58;6.65;;;4.45;;
23506;SDS011;11930;53.076;18.250;2023-06-22T04:14:24;6.38;;;4.32;;
23506;SDS011;11930;53.076;18.250;2023-06-22T04:16:51;5.45;;;4.03;;
23506;SDS011;11930;53.076;18.250;2023-06-22T04:19:17;5.90;;;4.30;;
23506;SDS011;11930;53.076;18.250;2023-06-22T04:21:43;7.65;;;4.00;;
23506;SDS011;11930;53.076;18.250;2023-06-22T04:24:10;6.40;;;3.67;;
23506;SDS011;11930;53.076;18.250;2023-06-22T04:26:37;6.50;;;4.03;;
23506;SDS011;11930;53.076;18.250;2023-06-22T04:29:03;6.80;;;4.10;;
23506;SDS011;11930;53.076;18.250;2023-06-22T04:31:31;8.48;;;4.35;;
23506;SDS011;11930;53.076;18.250;2023-06-22T04:34:02;7.70;;;4.30;;
23506;SDS011;11930;53.076;18.250;2023-06-22T04:36:40;5.13;;;3.95;;
23506;SDS011;11930;53.076;18.250;2023-06-22T04:39:07;4.65;;;3.63;;
23506;SDS011;11930;53.076;18.250;2023-06-22T04:41:35;5.53;;;3.80;;
23506;SDS011;11930;53.076;18.250;2023-06-22T04:44:16;4.68;;;3.50;;
23506;SDS011;11930;53.076;18.250;2023-06-22T04:46:53;6.70;;;3.85;;
23506;SDS011;11930;53.076;18.250;2023-06-22T04:49:25;5.30;;;3.97;;
23506;SDS011;11930;53.076;18.250;2023-06-22T04:51:58;6.43;;;3.88;;
23506;SDS011;11930;53.076;18.250;2023-06-22T04:54:25;4.90;;;3.90;;
23506;SDS011;11930;53.076;18.250;2023-06-22T04:56:51;12.85;;;8.35;;
23506;SDS011;11930;53.076;18.250;2023-06-22T04:59:23;11.40;;;5.35;;
23506;SDS011;11930;53.076;18.250;2023-06-22T05:01:54;6.60;;;4.65;;
23506;SDS011;11930;53.076;18.250;2023-06-22T05:04:21;6.28;;;4.22;;
23506;SDS011;11930;53.076;18.250;2023-06-22T05:06:49;6.68;;;4.30;;
23506;SDS011;11930;53.076;18.250;2023-06-22T05:09:15;8.25;;;4.60;;
23506;SDS011;11930;53.076;18.250;2023-06-22T05:11:43;5.88;;;3.70;;
23506;SDS011;11930;53.076;18.250;2023-06-22T05:14:09;5.03;;;3.88;;
23506;SDS011;11930;53.076;18.250;2023-06-22T05:16:36;14.40;;;9.52;;
23506;SDS011;11930;53.076;18.250;2023-06-22T05:19:02;11.90;;;7.97;;
23506;SDS011;11930;53.076;18.250;2023-06-22T05:21:29;6.68;;;4.60;;
23506;SDS011;11930;53.076;18.250;2023-06-22T05:23:56;5.50;;;3.72;;
23506;SDS011;11930;53.076;18.250;2023-06-22T05:26:26;6.15;;;4.00;;
23506;SDS011;11930;53.076;18.250;2023-06-22T05:28:52;6.60;;;4.03;;
23506;SDS011;11930;53.076;18.250;2023-06-22T05:31:19;6.93;;;3.88;;
23506;SDS011;11930;53.076;18.250;2023-06-22T05:33:45;5.50;;;3.63;;
23506;SDS011;11930;53.076;18.250;2023-06-22T05:36:13;6.18;;;4.35;;
23506;SDS011;11930;53.076;18.250;2023-06-22T05:38:39;6.10;;;3.80;;
23506;SDS011;11930;53.076;18.250;2023-06-22T05:41:06;4.60;;;3.90;;
23506;SDS011;11930;53.076;18.250;2023-06-22T05:43:32;4.88;;;4.10;;
23506;SDS011;11930;53.076;18.250;2023-06-22T05:46:02;5.05;;;3.80;;
23506;SDS011;11930;53.076;18.250;2023-06-22T05:48:28;5.25;;;3.97;;
23506;SDS011;11930;53.076;18.250;2023-06-22T05:50:55;4.68;;;3.70;;
23506;SDS011;11930;53.076;18.250;2023-06-22T05:53:21;6.32;;;4.00;;
23506;SDS011;11930;53.076;18.250;2023-06-22T05:55:47;6.18;;;3.88;;
23506;SDS011;11930;53.076;18.250;2023-06-22T05:58:13;5.72;;;4.05;;
23506;SDS011;11930;53.076;18.250;2023-06-22T06:00:40;5.55;;;3.88;;
23506;SDS011;11930;53.076;18.250;2023-06-22T06:03:07;5.25;;;3.50;;
23506;SDS011;11930;53.076;18.250;2023-06-22T06:05:34;7.20;;;4.07;;
23506;SDS011;11930;53.076;18.250;2023-06-22T06:08:01;5.45;;;3.90;;
23506;SDS011;11930;53.076;18.250;2023-06-22T06:10:30;5.13;;;3.63;;
23506;SDS011;11930;53.076;18.250;2023-06-22T06:12:57;5.25;;;3.17;;
23506;SDS011;11930;53.076;18.250;2023-06-22T06:15:24;5.72;;;3.80;;
23506;SDS011;11930;53.076;18.250;2023-06-22T06:17:51;4.88;;;3.63;;
23506;SDS011;11930;53.076;18.250;2023-06-22T06:20:20;4.95;;;3.30;;
23506;SDS011;11930;53.076;18.250;2023-06-22T06:22:47;5.93;;;3.88;;
23506;SDS011;11930;53.076;18.250;2023-06-22T06:25:14;6.70;;;3.70;;
23506;SDS011;11930;53.076;18.250;2023-06-22T06:27:45;6.60;;;3.67;;
23506;SDS011;11930;53.076;18.250;2023-06-22T06:30:13;6.70;;;3.53;;
23506;SDS011;11930;53.076;18.250;2023-06-22T06:32:40;6.00;;;3.60;;
23506;SDS011;11930;53.076;18.250;2023-06-22T06:35:07;4.85;;;3.35;;
23506;SDS011;11930;53.076;18.250;2023-06-22T06:37:35;6.78;;;3.90;;
23506;SDS011;11930;53.076;18.250;2023-06-22T06:40:03;5.72;;;3.38;;
23506;SDS011;11930;53.076;18.250;2023-06-22T06:42:32;4.57;;;3.63;;
23506;SDS011;11930;53.076;18.250;2023-06-22T06:44:58;5.82;;;3.85;;
23506;SDS011;11930;53.076;18.250;2023-06-22T06:47:24;7.50;;;3.88;;
23506;SDS011;11930;53.076;18.250;2023-06-22T06:49:50;5.55;;;3.75;;
23506;SDS011;11930;53.076;18.250;2023-06-22T06:52:16;5.95;;;3.63;;
23506;SDS011;11930;53.076;18.250;2023-06-22T06:54:42;4.88;;;3.40;;
23506;SDS011;11930;53.076;18.250;2023-06-22T06:57:08;4.60;;;3.53;;
23506;SDS011;11930;53.076;18.250;2023-06-22T06:59:36;6.50;;;4.03;;
23506;SDS011;11930;53.076;18.250;2023-06-22T07:02:02;6.30;;;3.47;;
23506;SDS011;11930;53.076;18.250;2023-06-22T07:04:28;10.73;;;5.70;;
23506;SDS011;11930;53.076;18.250;2023-06-22T07:06:54;5.05;;;3.60;;
23506;SDS011;11930;53.076;18.250;2023-06-22T07:09:20;7.20;;;3.45;;
23506;SDS011;11930;53.076;18.250;2023-06-22T07:11:46;5.28;;;3.30;;
23506;SDS011;11930;53.076;18.250;2023-06-22T07:14:12;5.85;;;3.10;;
23506;SDS011;11930;53.076;18.250;2023-06-22T07:16:38;5.47;;;3.50;;
23506;SDS011;11930;53.076;18.250;2023-06-22T07:19:04;4.47;;;3.40;;
23506;SDS011;11930;53.076;18.250;2023-06-22T07:21:30;5.63;;;3.45;;
23506;SDS011;11930;53.076;18.250;2023-06-22T07:23:56;3.53;;;2.80;;
23506;SDS011;11930;53.076;18.250;2023-06-22T07:26:22;4.85;;;2.90;;
23506;SDS011;11930;53.076;18.250;2023-06-22T07:28:48;5.28;;;3.88;;
23506;SDS011;11930;53.076;18.250;2023-06-22T07:31:16;4.72;;;3.60;;
23506;SDS011;11930;53.076;18.250;2023-06-22T07:33:42;5.53;;;2.80;;
23506;SDS011;11930;53.076;18.250;2023-06-22T07:36:08;3.78;;;2.65;;
23506;SDS011;11930;53.076;18.250;2023-06-22T07:38:34;5.03;;;2.58;;
23506;SDS011;11930;53.076;18.250;2023-06-22T07:41:02;4.07;;;2.63;;
23506;SDS011;11930;53.076;18.250;2023-06-22T07:43:31;5.25;;;2.78;;
23506;SDS011;11930;53.076;18.250;2023-06-22T07:45:58;4.15;;;3.00;;
23506;SDS011;11930;53.076;18.250;2023-06-22T07:48:24;7.00;;;2.67;;
23506;SDS011;11930;53.076;18.250;2023-06-22T07:50:50;4.43;;;2.42;;
23506;SDS011;11930;53.076;18.250;2023-06-22T07:53:16;3.50;;;2.00;;
23506;SDS011;11930;53.076;18.250;2023-06-22T07:55:42;2.80;;;2.05;;
23506;SDS011;11930;53.076;18.250;2023-06-22T07:58:08;4.07;;;2.22;;
23506;SDS011;11930;53.076;18.250;2023-06-22T08:00:34;3.22;;;2.10;;
23506;SDS011;11930;53.076;18.250;2023-06-22T08:03:00;5.78;;;2.33;;
23506;SDS011;11930;53.076;18.250;2023-06-22T08:05:30;4.07;;;2.50;;
23506;SDS011;11930;53.076;18.250;2023-06-22T08:07:57;4.57;;;2.13;;
23506;SDS011;11930;53.076;18.250;2023-06-22T08:10:23;3.47;;;2.30;;
23506;SDS011;11930;53.076;18.250;2023-06-22T08:12:49;4.22;;;2.20;;
23506;SDS011;11930;53.076;18.250;2023-06-22T08:15:17;4.05;;;2.40;;
23506;SDS011;11930;53.076;18.250;2023-06-22T08:17:43;4.43;;;2.55;;
23506;SDS011;11930;53.076;18.250;2023-06-22T08:20:10;4.45;;;3.25;;
23506;SDS011;11930;53.076;18.250;2023-06-22T08:22:40;5.50;;;3.15;;
23506;SDS011;11930;53.076;18.250;2023-06-22T08:25:07;3.80;;;2.60;;
23506;SDS011;11930;53.076;18.250;2023-06-22T08:27:34;3.33;;;2.28;;
23506;SDS011;11930;53.076;18.250;2023-06-22T08:30:01;4.18;;;2.47;;
23506;SDS011;11930;53.076;18.250;2023-06-22T08:32:27;4.25;;;2.28;;
23506;SDS011;11930;53.076;18.250;2023-06-22T08:34:57;4.40;;;3.45;;
23506;SDS011;11930;53.076;18.250;2023-06-22T08:37:23;5.47;;;2.35;;
23506;SDS011;11930;53.076;18.250;2023-06-22T08:39:56;3.85;;;2.20;;
23506;SDS011;11930;53.076;18.250;2023-06-22T08:42:26;3.97;;;2.30;;
23506;SDS011;11930;53.076;18.250;2023-06-22T08:44:52;3.78;;;2.47;;
23506;SDS011;11930;53.076;18.250;2023-06-22T08:47:19;4.60;;;2.55;;
23506;SDS011;11930;53.076;18.250;2023-06-22T08:49:45;3.20;;;1.95;;
23506;SDS011;11930;53.076;18.250;2023-06-22T08:52:12;3.60;;;2.40;;
23506;SDS011;11930;53.076;18.250;2023-06-22T08:54:38;3.38;;;2.38;;
23506;SDS011;11930;53.076;18.250;2023-06-22T08:57:05;4.47;;;2.60;;
23506;SDS011;11930;53.076;18.250;2023-06-22T08:59:31;3.40;;;2.33;;
23506;SDS011;11930;53.076;18.250;2023-06-22T09:01:57;4.68;;;2.42;;
23506;SDS011;11930;53.076;18.250;2023-06-22T09:04:23;5.57;;;2.55;;
23506;SDS011;11930;53.076;18.250;2023-06-22T09:06:50;5.90;;;2.50;;
23506;SDS011;11930;53.076;18.250;2023-06-22T09:09:17;4.47;;;2.15;;
23506;SDS011;11930;53.076;18.250;2023-06-22T09:11:44;2.95;;;2.00;;
23506;SDS011;11930;53.076;18.250;2023-06-22T09:14:10;3.42;;;2.22;;
23506;SDS011;11930;53.076;18.250;2023-06-22T09:16:36;3.08;;;2.25;;
23506;SDS011;11930;53.076;18.250;2023-06-22T09:19:02;3.08;;;2.10;;
23506;SDS011;11930;53.076;18.250;2023-06-22T09:21:28;4.05;;;2.42;;
23506;SDS011;11930;53.076;18.250;2023-06-22T09:23:54;3.10;;;2.20;;
23506;SDS011;11930;53.076;18.250;2023-06-22T09:26:21;4.30;;;2.40;;
23506;SDS011;11930;53.076;18.250;2023-06-22T09:28:49;4.32;;;2.15;;
23506;SDS011;11930;53.076;18.250;2023-06-22T09:31:15;4.18;;;2.38;;
23506;SDS011;11930;53.076;18.250;2023-06-22T09:33:42;3.05;;;2.33;;
23506;SDS011;11930;53.076;18.250;2023-06-22T09:36:08;4.43;;;2.60;;
23506;SDS011;11930;53.076;18.250;2023-06-22T09:38:35;5.25;;;2.42;;
23506;SDS011;11930;53.076;18.250;2023-06-22T09:41:01;3.92;;;2.50;;
23506;SDS011;11930;53.076;18.250;2023-06-22T09:43:27;5.00;;;2.13;;
23506;SDS011;11930;53.076;18.250;2023-06-22T09:45:54;4.05;;;2.40;;
23506;SDS011;11930;53.076;18.250;2023-06-22T09:48:19;3.65;;;2.30;;
23506;SDS011;11930;53.076;18.250;2023-06-22T09:50:46;4.25;;;2.50;;
23506;SDS011;11930;53.076;18.250;2023-06-22T09:53:12;3.47;;;2.40;;
23506;SDS011;11930;53.076;18.250;2023-06-22T09:55:38;4.95;;;2.60;;
23506;SDS011;11930;53.076;18.250;2023-06-22T09:58:03;6.25;;;2.85;;
23506;SDS011;11930;53.076;18.250;2023-06-22T10:00:30;4.07;;;2.53;;
23506;SDS011;11930;53.076;18.250;2023-06-22T10:02:55;4.35;;;2.53;;
23506;SDS011;11930;53.076;18.250;2023-06-22T10:05:23;3.00;;;2.25;;
23506;SDS011;11930;53.076;18.250;2023-06-22T10:07:50;4.10;;;2.17;;
23506;SDS011;11930;53.076;18.250;2023-06-22T10:10:16;3.50;;;2.20;;
23506;SDS011;11930;53.076;18.250;2023-06-22T10:12:46;4.00;;;2.40;;
23506;SDS011;11930;53.076;18.250;2023-06-22T10:15:14;4.40;;;2.70;;
23506;SDS011;11930;53.076;18.250;2023-06-22T10:17:40;3.00;;;2.22;;
23506;SDS011;11930;53.076;18.250;2023-06-22T10:20:06;3.13;;;2.30;;
23506;SDS011;11930;53.076;18.250;2023-06-22T10:22:39;3.25;;;2.10;;
23506;SDS011;11930;53.076;18.250;2023-06-22T10:25:10;3.28;;;2.17;;
23506;SDS011;11930;53.076;18.250;2023-06-22T10:27:37;8.05;;;2.60;;
23506;SDS011;11930;53.076;18.250;2023-06-22T10:30:08;4.10;;;2.80;;
23506;SDS011;11930;53.076;18.250;2023-06-22T10:32:38;5.55;;;2.83;;
23506;SDS011;11930;53.076;18.250;2023-06-22T10:35:05;3.17;;;2.38;;
23506;SDS011;11930;53.076;18.250;2023-06-22T10:37:31;3.83;;;2.20;;
23506;SDS011;11930;53.076;18.250;2023-06-22T10:39:57;4.03;;;2.03;;
23506;SDS011;11930;53.076;18.250;2023-06-22T10:42:23;3.35;;;2.30;;
23506;SDS011;11930;53.076;18.250;2023-06-22T10:44:49;3.03;;;2.17;;
23506;SDS011;11930;53.076;18.250;2023-06-22T10:47:15;3.22;;;2.35;;
23506;SDS011;11930;53.076;18.250;2023-06-22T10:49:41;3.35;;;2.28;;
23506;SDS011;11930;53.076;18.250;2023-06-22T10:52:08;4.68;;;2.60;;
23506;SDS011;11930;53.076;18.250;2023-06-22T10:54:34;3.63;;;2.75;;
23506;SDS011;11930;53.076;18.250;2023-06-22T10:57:02;3.90;;;2.40;;
23506;SDS011;11930;53.076;18.250;2023-06-22T10:59:28;3.63;;;2.42;;
23506;SDS011;11930;53.076;18.250;2023-06-22T11:01:55;4.40;;;2.50;;
23506;SDS011;11930;53.076;18.250;2023-06-22T11:04:22;3.95;;;3.00;;
23506;SDS011;11930;53.076;18.250;2023-06-22T11:06:48;6.57;;;2.60;;
23506;SDS011;11930;53.076;18.250;2023-06-22T11:09:17;4.82;;;2.55;;
23506;SDS011;11930;53.076;18.250;2023-06-22T11:11:50;3.60;;;2.70;;
23506;SDS011;11930;53.076;18.250;2023-06-22T11:14:20;5.13;;;2.60;;
23506;SDS011;11930;53.076;18.250;2023-06-22T11:16:46;3.10;;;2.33;;
23506;SDS011;11930;53.076;18.250;2023-06-22T11:19:12;3.65;;;2.42;;
23506;SDS011;11930;53.076;18.250;2023-06-22T11:21:38;3.97;;;2.40;;
23506;SDS011;11930;53.076;18.250;2023-06-22T11:24:05;4.63;;;2.50;;
23506;SDS011;11930;53.076;18.250;2023-06-22T11:26:31;4.13;;;2.60;;
23506;SDS011;11930;53.076;18.250;2023-06-22T11:28:58;3.25;;;2.20;;
23506;SDS011;11930;53.076;18.250;2023-06-22T11:31:24;3.78;;;2.60;;
23506;SDS011;11930;53.076;18.250;2023-06-22T11:33:51;4.85;;;2.90;;
23506;SDS011;11930;53.076;18.250;2023-06-22T11:36:17;3.38;;;2.58;;
23506;SDS011;11930;53.076;18.250;2023-06-22T11:38:44;5.78;;;3.67;;
23506;SDS011;11930;53.076;18.250;2023-06-22T11:41:10;3.70;;;2.40;;
23506;SDS011;11930;53.076;18.250;2023-06-22T11:43:37;7.63;;;2.72;;
23506;SDS011;11930;53.076;18.250;2023-06-22T11:46:03;3.88;;;2.88;;
23506;SDS011;11930;53.076;18.250;2023-06-22T11:48:30;4.90;;;2.47;;
23506;SDS011;11930;53.076;18.250;2023-06-22T11:50:56;7.03;;;2.60;;
23506;SDS011;11930;53.076;18.250;2023-06-22T11:53:23;4.65;;;2.55;;
23506;SDS011;11930;53.076;18.250;2023-06-22T11:55:50;6.25;;;2.60;;
23506;SDS011;11930;53.076;18.250;2023-06-22T11:58:16;4.75;;;2.58;;
23506;SDS011;11930;53.076;18.250;2023-06-22T12:00:42;4.07;;;2.78;;
23506;SDS011;11930;53.076;18.250;2023-06-22T12:03:09;3.80;;;2.40;;
23506;SDS011;11930;53.076;18.250;2023-06-22T12:05:37;4.88;;;2.63;;
23506;SDS011;11930;53.076;18.250;2023-06-22T12:08:03;3.00;;;2.35;;
23506;SDS011;11930;53.076;18.250;2023-06-22T12:10:29;6.85;;;2.67;;
23506;SDS011;11930;53.076;18.250;2023-06-22T12:12:56;7.25;;;5.85;;
23506;SDS011;11930;53.076;18.250;2023-06-22T12:15:25;5.18;;;3.50;;
23506;SDS011;11930;53.076;18.250;2023-06-22T12:17:52;3.90;;;2.70;;
23506;SDS011;11930;53.076;18.250;2023-06-22T12:20:18;5.15;;;2.75;;
23506;SDS011;11930;53.076;18.250;2023-06-22T12:22:45;7.57;;;2.95;;
23506;SDS011;11930;53.076;18.250;2023-06-22T12:25:11;4.57;;;2.00;;
23506;SDS011;11930;53.076;18.250;2023-06-22T12:27:37;3.65;;;2.17;;
23506;SDS011;11930;53.076;18.250;2023-06-22T12:30:03;4.05;;;2.25;;
23506;SDS011;11930;53.076;18.250;2023-06-22T12:32:30;6.18;;;2.63;;
23506;SDS011;11930;53.076;18.250;2023-06-22T12:34:56;3.95;;;2.78;;
23506;SDS011;11930;53.076;18.250;2023-06-22T12:37:22;4.75;;;2.70;;
23506;SDS011;11930;53.076;18.250;2023-06-22T12:39:48;3.20;;;2.20;;
23506;SDS011;11930;53.076;18.250;2023-06-22T12:42:15;3.30;;;2.10;;
23506;SDS011;11930;53.076;18.250;2023-06-22T12:44:41;3.53;;;2.40;;
23506;SDS011;11930;53.076;18.250;2023-06-22T12:47:08;4.20;;;1.98;;
23506;SDS011;11930;53.076;18.250;2023-06-22T12:49:35;3.38;;;2.28;;
23506;SDS011;11930;53.076;18.250;2023-06-22T12:52:01;3.22;;;1.98;;
23506;SDS011;11930;53.076;18.250;2023-06-22T12:54:28;3.67;;;2.00;;
23506;SDS011;11930;53.076;18.250;2023-06-22T12:56:55;6.88;;;2.30;;
23506;SDS011;11930;53.076;18.250;2023-06-22T12:59:21;5.85;;;1.98;;
23506;SDS011;11930;53.076;18.250;2023-06-22T13:01:47;5.40;;;2.33;;
23506;SDS011;11930;53.076;18.250;2023-06-22T13:04:13;3.75;;;2.38;;
23506;SDS011;11930;53.076;18.250;2023-06-22T13:06:40;3.78;;;2.22;;
23506;SDS011;11930;53.076;18.250;2023-06-22T13:09:07;3.38;;;2.50;;
23506;SDS011;11930;53.076;18.250;2023-06-22T13:11:34;3.38;;;2.22;;
23506;SDS011;11930;53.076;18.250;2023-06-22T13:14:00;4.90;;;2.40;;
23506;SDS011;11930;53.076;18.250;2023-06-22T13:16:27;3.55;;;2.20;;
23506;SDS011;11930;53.076;18.250;2023-06-22T13:18:52;7.15;;;5.10;;
23506;SDS011;11930;53.076;18.250;2023-06-22T13:21:18;5.68;;;2.90;;
23506;SDS011;11930;53.076;18.250;2023-06-22T13:23:44;4.63;;;2.33;;
23506;SDS011;11930;53.076;18.250;2023-06-22T13:26:11;7.10;;;2.42;;
23506;SDS011;11930;53.076;18.250;2023-06-22T13:28:37;7.53;;;2.40;;
23506;SDS011;11930;53.076;18.250;2023-06-22T13:31:03;4.00;;;2.40;;
23506;SDS011;11930;53.076;18.250;2023-06-22T13:33:29;3.97;;;2.20;;
23506;SDS011;11930;53.076;18.250;2023-06-22T13:35:55;2.80;;;2.20;;
23506;SDS011;11930;53.076;18.250;2023-06-22T13:38:21;4.57;;;2.40;;
23506;SDS011;11930;53.076;18.250;2023-06-22T13:40:48;7.45;;;4.60;;
23506;SDS011;11930;53.076;18.250;2023-06-22T13:43:15;5.20;;;2.95;;
23506;SDS011;11930;53.076;18.250;2023-06-22T13:45:41;5.47;;;2.20;;
23506;SDS011;11930;53.076;18.250;2023-06-22T13:48:08;6.18;;;2.28;;
23506;SDS011;11930;53.076;18.250;2023-06-22T13:50:35;4.55;;;2.20;;
23506;SDS011;11930;53.076;18.250;2023-06-22T13:53:01;4.30;;;2.22;;
23506;SDS011;11930;53.076;18.250;2023-06-22T13:55:27;4.88;;;2.10;;
23506;SDS011;11930;53.076;18.250;2023-06-22T13:57:53;4.47;;;2.45;;
23506;SDS011;11930;53.076;18.250;2023-06-22T14:00:19;3.80;;;2.40;;
23506;SDS011;11930;53.076;18.250;2023-06-22T14:02:46;3.35;;;2.30;;
23506;SDS011;11930;53.076;18.250;2023-06-22T14:05:12;5.03;;;2.15;;
23506;SDS011;11930;53.076;18.250;2023-06-22T14:07:38;4.45;;;2.30;;
23506;SDS011;11930;53.076;18.250;2023-06-22T14:10:05;4.68;;;2.42;;
23506;SDS011;11930;53.076;18.250;2023-06-22T14:12:31;3.17;;;2.10;;
23506;SDS011;11930;53.076;18.250;2023-06-22T14:14:57;3.95;;;2.58;;
23506;SDS011;11930;53.076;18.250;2023-06-22T14:17:23;3.80;;;2.22;;
23506;SDS011;11930;53.076;18.250;2023-06-22T14:19:52;5.22;;;2.13;;
23506;SDS011;11930;53.076;18.250;2023-06-22T14:22:21;3.30;;;2.05;;
23506;SDS011;11930;53.076;18.250;2023-06-22T14:24:48;3.65;;;2.22;;
23506;SDS011;11930;53.076;18.250;2023-06-22T14:27:14;3.92;;;2.00;;
23506;SDS011;11930;53.076;18.250;2023-06-22T14:29:41;5.95;;;2.55;;
23506;SDS011;11930;53.076;18.250;2023-06-22T14:32:07;3.58;;;2.28;;
23506;SDS011;11930;53.076;18.250;2023-06-22T14:34:34;3.95;;;2.55;;
23506;SDS011;11930;53.076;18.250;2023-06-22T14:37:03;4.43;;;2.30;;
23506;SDS011;11930;53.076;18.250;2023-06-22T14:39:29;4.18;;;2.25;;